Time;durP1;ratioP1;P1;durP2;ratioP2;P2;SDS_P1;SDS_P2;PMS_P1;PMS_P2;Temp;Humidity;BMP_temperature;BMP_pressure;BME280_temperature;BME280_humidity;BME280_pressure;Samples;Min_cycle;Max_cycle;Signal;HPM_P1;HPM_P2
2022/07/17 07:59:06;;;;;;;5.28;2.67;;;;;;;17.98;55.59;102615.69;5301428;27;1887418;-70
2022/07/17 08:01:37;;;;;;;7.03;2.90;;;;;;;18.18;55.52;102613.78;5343008;28;20040;-71
2022/07/17 08:04:08;;;;;;;7.45;3.22;;;;;;;18.17;56.28;102617.72;5344177;28;20408;-70
2022/07/17 08:06:39;;;;;;;5.47;3.30;;;;;;;18.19;55.31;102607.84;5327777;28;20015;-69
2022/07/17 08:09:11;;;;;;;7.63;3.17;;;;;;;18.21;55.88;102616.81;5322609;28;20024;-68
2022/07/17 08:11:42;;;;;;;5.22;3.70;;;;;;;18.24;55.55;102621.00;5322411;28;20019;-69
2022/07/17 08:14:14;;;;;;;7.10;3.28;;;;;;;18.31;55.83;102626.28;5321794;28;20041;-68
2022/07/17 08:16:45;;;;;;;8.38;3.22;;;;;;;18.37;55.26;102627.88;5322139;28;20024;-71
2022/07/17 08:19:17;;;;;;;6.57;3.00;;;;;;;18.39;54.73;102622.78;5322141;28;20024;-71
2022/07/17 08:21:48;;;;;;;6.85;3.70;;;;;;;18.54;54.69;102621.78;5321456;28;20034;-71
2022/07/17 08:24:20;;;;;;;7.03;3.58;;;;;;;18.60;54.85;102629.81;5322810;28;20027;-71
2022/07/17 08:26:51;;;;;;;5.75;3.78;;;;;;;18.70;54.77;102620.41;5342611;28;20110;-71
2022/07/17 08:29:23;;;;;;;11.48;4.07;;;;;;;18.85;54.26;102628.66;5334740;28;20016;-71
2022/07/17 08:31:55;;;;;;;4.38;3.90;;;;;;;18.97;53.51;102624.56;5322188;28;20157;-71
2022/07/17 08:34:26;;;;;;;5.72;2.85;;;;;;;19.04;54.15;102623.03;5334893;28;20051;-72
2022/07/17 08:36:57;;;;;;;10.98;6.05;;;;;;;18.87;52.47;102619.94;5342337;28;20058;-70
2022/07/17 08:39:28;;;;;;;6.15;2.88;;;;;;;18.85;52.39;102622.22;5343180;28;20466;-70
2022/07/17 08:42:02;;;;;;;5.63;2.47;;;;;;;18.75;51.74;102613.91;5342483;28;20027;-71
2022/07/17 08:44:34;;;;;;;6.55;3.22;;;;;;;18.92;53.92;102616.19;5342425;28;20027;-70
2022/07/17 08:47:05;;;;;;;8.55;2.80;;;;;;;18.92;52.42;102616.19;5328316;28;20034;-71
2022/07/17 08:49:45;;;;;;;6.38;3.25;;;;;;;19.12;52.03;102613.06;5320965;28;20047;-72
2022/07/17 08:52:16;;;;;;;7.43;2.55;;;;;;;18.94;50.42;102623.19;5321853;28;20417;-71
2022/07/17 08:54:47;;;;;;;4.35;2.25;;;;;;;18.96;50.57;102623.72;5320986;28;20020;-71
2022/07/17 08:57:20;;;;;;;5.78;2.13;;;;;;;18.96;50.90;102609.66;5319800;28;20798;-71
2022/07/17 08:59:51;;;;;;;4.78;2.17;;;;;;;19.19;51.29;102615.50;5321590;28;20104;-72
2022/07/17 09:02:22;;;;;;;5.15;2.20;;;;;;;19.11;50.84;102612.25;5331109;28;20420;-71
2022/07/17 09:04:54;;;;;;;8.60;2.00;;;;;;;19.22;50.38;102612.91;5321649;28;20534;-70
2022/07/17 09:07:25;;;;;;;6.25;2.00;;;;;;;19.46;50.82;102618.44;5329649;28;20038;-72
2022/07/17 09:09:56;;;;;;;4.90;2.17;;;;;;;19.55;50.31;102622.19;5331084;28;20419;-71
2022/07/17 09:12:29;;;;;;;2.28;1.50;;;;;;;19.43;48.55;102627.50;5328108;28;20028;-71
2022/07/17 09:15:14;;;;;;;7.07;2.00;;;;;;;19.62;49.52;102613.38;5314440;28;20065;-70
2022/07/17 09:17:51;;;;;;;4.57;1.98;;;;;;;19.52;48.94;102610.75;5306807;28;20067;-71
2022/07/17 09:20:23;;;;;;;2.88;1.50;;;;;;;19.53;47.81;102610.44;5314175;28;20515;-72
2022/07/17 09:23:03;;;;;;;3.10;1.70;;;;;;;19.57;47.77;102612.63;5328097;28;20028;-71
2022/07/17 09:25:40;;;;;;;6.22;1.77;;;;;;;19.88;48.14;102610.13;5327557;28;20051;-70
2022/07/17 09:28:13;;;;;;;5.93;1.95;;;;;;;19.92;48.06;102609.19;5328198;28;20066;-69
2022/07/17 09:30:48;;;;;;;5.13;1.80;;;;;;;20.11;47.72;102605.44;5327789;28;20031;-71
2022/07/17 09:33:22;;;;;;;5.93;2.67;;;;;;;20.15;46.77;102604.50;5327440;28;20099;-71
2022/07/17 09:35:57;;;;;;;6.35;2.30;;;;;;;20.33;47.90;102605.56;5326937;28;20028;-72
2022/07/17 09:38:30;;;;;;;8.10;5.20;;;;;;;20.55;46.93;102607.63;5310356;28;20103;-73
2022/07/17 09:41:11;;;;;;;6.93;2.92;;;;;;;20.53;47.61;102603.44;5307142;28;20494;-72
2022/07/17 09:43:46;;;;;;;6.00;2.10;;;;;;;20.55;47.63;102601.16;5306640;28;20035;-72
2022/07/17 09:46:18;;;;;;;5.25;2.40;;;;;;;20.40;46.35;102605.97;5311678;28;20383;-72
2022/07/17 09:48:58;;;;;;;6.07;2.28;;;;;;;20.36;46.42;102607.75;5327517;28;20042;-72
2022/07/17 09:51:38;;;;;;;5.65;2.15;;;;;;;20.63;46.42;102614.50;5313667;28;20023;-72
2022/07/17 09:54:13;;;;;;;3.22;1.90;;;;;;;20.80;46.61;102600.59;5310607;28;20027;-72
2022/07/17 09:56:47;;;;;;;5.53;1.92;;;;;;;21.00;45.46;102601.28;5307936;28;20016;-72
2022/07/17 09:59:19;;;;;;;5.68;3.13;;;;;;;21.03;44.97;102592.19;5319287;28;20067;-72
2022/07/17 10:01:51;;;;;;;5.03;2.58;;;;;;;20.99;44.03;102602.44;5327670;28;20059;-71
2022/07/17 10:04:22;;;;;;;5.55;2.30;;;;;;;21.08;44.11;102597.69;5327160;28;20116;-72
2022/07/17 10:06:54;;;;;;;4.68;2.28;;;;;;;20.66;44.73;102608.28;5326701;28;20055;-73
2022/07/17 10:09:26;;;;;;;4.55;1.95;;;;;;;20.89;43.27;102605.47;5326438;28;20023;-72
2022/07/17 10:11:58;;;;;;;5.30;2.10;;;;;;;20.92;42.87;102610.50;5314677;28;20036;-73
2022/07/17 10:14:30;;;;;;;4.43;2.00;;;;;;;20.97;42.72;102607.56;5305356;28;20024;-72
2022/07/17 10:17:12;;;;;;;5.50;1.92;;;;;;;21.10;42.03;102598.22;5305839;28;20028;-72
2022/07/17 10:19:56;;;;;;;5.88;2.38;;;;;;;21.24;42.85;102601.81;5305335;28;20074;-71
2022/07/17 10:22:44;;;;;;;4.40;2.00;;;;;;;21.46;42.58;102597.34;5304477;28;20028;-72
2022/07/17 10:25:16;;;;;;;6.20;1.98;;;;;;;21.50;42.22;102598.38;5306003;28;20383;-69
2022/07/17 10:27:51;;;;;;;6.65;4.32;;;;;;;21.56;41.24;102601.91;5318991;28;20028;-68
2022/07/17 10:30:26;;;;;;;10.70;6.97;;;;;;;21.37;39.23;102596.41;5326600;28;20560;-72
2022/07/17 10:33:05;;;;;;;4.30;2.13;;;;;;;21.44;39.38;102605.31;5326840;28;20027;-72
2022/07/17 10:35:47;;;;;;;3.67;1.92;;;;;;;21.37;41.39;102602.91;5317621;28;20012;-70
2022/07/17 10:38:19;;;;;;;5.07;1.90;;;;;;;21.56;40.89;102596.25;5304989;28;20069;-72
2022/07/17 10:41:00;;;;;;;6.13;1.98;;;;;;;21.74;41.33;102597.19;5305443;28;20387;-71
2022/07/17 10:43:44;;;;;;;3.28;1.58;;;;;;;21.88;39.56;102603.56;5320146;28;20043;-72
2022/07/17 10:46:15;;;;;;;7.95;4.60;;;;;;;22.00;38.36;102595.31;5311149;28;20048;-71
2022/07/17 10:48:49;;;;;;;19.08;16.20;;;;;;;21.83;39.51;102598.06;5304194;28;20056;-72
2022/07/17 10:51:24;;;;;;;12.05;10.15;;;;;;;21.96;39.40;102594.31;5305239;28;20024;-72
2022/07/17 10:53:58;;;;;;;;;;;;;;;22.18;39.41;102589.75;5305453;28;20028;-68
2022/07/17 10:56:29;;;;;;;3.78;1.98;;;;;;;22.13;40.44;102593.53;5303873;28;20003;-68
2022/07/17 10:59:02;;;;;;;5.93;2.10;;;;;;;22.16;39.95;102592.88;5304960;28;20459;-69
2022/07/17 11:01:33;;;;;;;4.43;2.33;;;;;;;22.14;40.43;102596.06;5305358;28;20023;-69
2022/07/17 11:04:06;;;;;;;4.13;2.35;;;;;;;22.19;39.74;102595.09;5325141;28;20024;-71
2022/07/17 11:06:38;;;;;;;4.15;2.05;;;;;;;22.47;40.08;102598.53;5325499;28;20024;-71
2022/07/17 11:09:11;;;;;;;6.85;3.88;;;;;;;22.41;40.72;102599.81;5326366;28;20108;-72
2022/07/17 11:11:48;;;;;;;5.05;2.40;;;;;;;22.47;40.47;102598.53;5325714;28;20106;-71
2022/07/17 11:14:21;;;;;;;7.30;2.75;;;;;;;22.48;40.36;102599.34;5326417;28;20039;-71
2022/07/17 11:17:03;;;;;;;4.55;2.03;;;;;;;22.61;40.17;102591.88;5321651;28;20023;-72
2022/07/17 11:19:41;;;;;;;3.63;1.58;;;;;;;22.57;39.45;102586.91;5316217;28;20026;-72
2022/07/17 11:22:13;;;;;;;4.80;2.53;;;;;;;22.57;39.86;102578.41;5286752;28;20028;-72
2022/07/17 11:24:47;;;;;;;4.30;2.00;;;;;;;22.49;39.64;102578.38;5305267;28;20367;-71
2022/07/17 11:27:29;;;;;;;5.78;2.20;;;;;;;22.60;40.01;102578.91;5325879;28;20127;-72
2022/07/17 11:30:03;;;;;;;3.35;1.90;;;;;;;22.66;39.46;102575.59;5325678;28;20046;-71
2022/07/17 11:32:36;;;;;;;6.22;3.35;;;;;;;22.77;39.32;102587.41;5324508;28;20138;-72
2022/07/17 11:35:19;;;;;;;6.07;2.75;;;;;;;22.77;39.65;102579.75;5324769;28;20107;-71
2022/07/17 11:37:53;;;;;;;4.03;2.75;;;;;;;22.55;39.52;102583.56;5324185;28;20035;-71
2022/07/17 11:40:25;;;;;;;5.57;2.63;;;;;;;22.60;39.47;102579.75;5325376;28;20024;-72
2022/07/17 11:43:01;;;;;;;5.35;1.73;;;;;;;23.03;39.37;102580.94;5325612;28;20028;-72
2022/07/17 11:45:33;;;;;;;3.58;1.98;;;;;;;22.87;38.46;102584.25;5324795;28;20019;-72
2022/07/17 11:48:05;;;;;;;6.07;3.85;;;;;;;23.23;38.29;102574.63;5325462;28;20035;-71
2022/07/17 11:50:37;;;;;;;21.27;18.02;;;;;;;23.48;38.20;102577.75;5324647;28;20031;-72
2022/07/17 11:53:09;;;;;;;37.30;33.85;;;;;;;23.53;38.49;102572.72;5319161;28;20519;-72
2022/07/17 11:55:41;;;;;;;7.18;2.60;;;;;;;23.53;37.83;102572.72;5303919;28;20112;-71
2022/07/17 11:58:12;;;;;;;5.60;2.35;;;;;;;23.59;37.58;102564.88;5303491;28;20400;-72
2022/07/17 12:00:44;;;;;;;4.90;2.38;;;;;;;23.71;37.97;102573.50;5302803;28;20073;-71
2022/07/17 12:03:25;;;;;;;5.88;2.75;;;;;;;23.93;37.94;102568.78;5304031;28;20460;-71
2022/07/17 12:05:56;;;;;;;5.95;1.95;;;;;;;23.76;37.67;102566.88;5303302;28;20114;-71
2022/07/17 12:08:28;;;;;;;6.32;2.22;;;;;;;23.89;37.89;102562.16;5306145;28;20099;-72
2022/07/17 12:11:08;;;;;;;6.82;2.25;;;;;;;24.05;38.53;102563.25;5316886;28;20084;-72
2022/07/17 12:13:46;;;;;;;6.60;2.45;;;;;;;24.19;37.79;102563.00;5324826;28;20024;-72
2022/07/17 12:16:23;;;;;;;9.18;2.67;;;;;;;24.33;37.29;102560.75;5324863;28;20408;-72
2022/07/17 12:19:04;;;;;;;9.30;8.40;;;;;;;24.41;37.38;102556.19;5324680;28;20038;-72
2022/07/17 12:21:59;;;;;;;4.70;2.60;;;;;;;24.71;37.78;102548.50;5324107;28;20485;-71
2022/07/17 12:24:43;;;;;;;3.88;2.15;;;;;;;24.54;37.72;102543.78;5317714;28;20028;-72
2022/07/17 12:27:16;;;;;;;6.68;2.40;;;;;;;24.48;37.92;102556.53;5305872;28;20028;-72
2022/07/17 12:29:47;;;;;;;5.20;2.17;;;;;;;24.46;37.26;102556.03;5303735;28;20103;-72
2022/07/17 12:32:19;;;;;;;4.13;1.88;;;;;;;24.66;37.20;102538.19;5303461;28;20103;-72
2022/07/17 12:34:51;;;;;;;3.83;2.03;;;;;;;24.92;37.61;102537.16;5303174;28;20032;-72
2022/07/17 12:37:22;;;;;;;8.13;3.00;;;;;;;24.58;37.42;102533.44;5303789;28;20024;-72
2022/07/17 12:39:55;;;;;;;4.43;1.90;;;;;;;24.67;37.08;102537.03;5303730;28;20081;-72
2022/07/17 12:42:27;;;;;;;7.55;2.00;;;;;;;24.79;36.48;102532.59;5303287;28;20028;-72
2022/07/17 12:44:58;;;;;;;5.35;1.98;;;;;;;24.85;36.18;102540.56;5318661;28;20023;-72
2022/07/17 12:47:29;;;;;;;5.65;2.00;;;;;;;24.92;36.25;102549.31;5307955;28;20024;-72
2022/07/17 12:50:01;;;;;;;4.93;2.28;;;;;;;25.00;36.40;102541.09;5306885;28;20099;-71
2022/07/17 12:52:32;;;;;;;6.68;1.92;;;;;;;24.86;36.41;102527.19;5307615;28;20024;-72
2022/07/17 12:55:04;;;;;;;5.70;1.83;;;;;;;24.87;36.68;102529.66;5306821;28;20080;-72
2022/07/17 12:57:35;;;;;;;5.35;2.30;;;;;;;25.28;36.70;102527.16;5307215;28;20040;-73
2022/07/17 13:00:07;;;;;;;6.38;2.40;;;;;;;25.24;36.33;102521.34;5307762;28;20028;-72
2022/07/17 13:02:38;;;;;;;10.77;2.03;;;;;;;25.31;36.82;102532.97;5324713;28;20031;-72
2022/07/17 13:05:09;;;;;;;6.20;2.58;;;;;;;25.39;36.21;102528.38;5329110;28;20020;-72
2022/07/17 13:07:41;;;;;;;5.90;1.80;;;;;;;25.44;35.67;102535.81;5328696;28;20027;-77
2022/07/17 13:10:12;;;;;;;2.97;1.65;;;;;;;25.63;35.87;102529.59;5328603;28;20047;-77
2022/07/17 13:12:43;;;;;;;5.30;1.90;;;;;;;25.47;36.34;102523.78;5328582;28;20023;-73
2022/07/17 13:15:15;;;;;;;3.15;2.00;;;;;;;25.41;36.05;102514.63;5327882;28;20031;-72
2022/07/17 13:17:46;;;;;;;9.70;1.83;;;;;;;25.29;35.61;102514.63;5306567;28;20032;-71
2022/07/17 13:20:17;;;;;;;7.20;2.00;;;;;;;25.64;35.41;102517.03;5305918;28;20089;-72
2022/07/17 13:22:49;;;;;;;8.02;2.00;;;;;;;25.79;35.53;102504.97;5306972;28;20013;-72
2022/07/17 13:25:20;;;;;;;4.70;2.15;;;;;;;25.82;34.87;102509.94;5306093;28;20020;-73
2022/07/17 13:27:52;;;;;;;4.40;1.77;;;;;;;25.92;35.17;102498.13;5323632;28;20035;-71
2022/07/17 13:30:23;;;;;;;6.72;3.20;;;;;;;26.13;35.17;102511.41;5326934;28;20028;-69
2022/07/17 13:32:54;;;;;;;6.50;2.70;;;;;;;25.84;35.51;102499.06;5327051;28;20065;-70
2022/07/17 13:35:26;;;;;;;7.55;2.30;;;;;;;25.78;34.95;102494.81;5319620;28;20028;-70
2022/07/17 13:37:59;;;;;;;4.32;1.80;;;;;;;25.88;34.84;102505.75;5305095;28;20093;-70
2022/07/17 13:40:31;;;;;;;10.13;2.97;;;;;;;26.09;35.29;102496.25;5305866;28;20085;-70
2022/07/17 13:43:03;;;;;;;4.20;2.10;;;;;;;26.29;34.98;102489.59;5306621;28;20012;-70
2022/07/17 13:45:35;;;;;;;8.25;2.22;;;;;;;26.42;34.55;102496.91;5305915;28;20389;-70
2022/07/17 13:48:06;;;;;;;4.57;1.80;;;;;;;26.39;34.77;102480.56;5306488;28;20016;-71
2022/07/17 13:50:37;;;;;;;4.60;2.13;;;;;;;26.49;34.34;102484.94;5307341;28;20028;-71
2022/07/17 13:53:10;;;;;;;4.60;1.80;;;;;;;26.62;33.95;102482.91;5319497;28;20141;-71
2022/07/17 13:55:42;;;;;;;5.07;1.88;;;;;;;26.76;33.11;102471.91;5327500;28;20023;-70
2022/07/17 13:58:13;;;;;;;4.35;1.85;;;;;;;26.74;34.02;102476.31;5306233;28;20048;-69
2022/07/17 14:00:45;;;;;;;6.82;2.33;;;;;;;26.77;34.02;102473.59;5305291;28;20058;-72
2022/07/17 14:03:16;;;;;;;4.45;2.03;;;;;;;26.81;33.47;102457.44;5306251;28;20017;-73
2022/07/17 14:05:47;;;;;;;9.65;5.50;;;;;;;26.92;33.16;102454.91;5305715;28;20031;-73
2022/07/17 14:08:18;;;;;;;4.93;2.00;;;;;;;26.41;33.82;102455.44;5321921;28;20459;-72
2022/07/17 14:10:50;;;;;;;4.10;1.95;;;;;;;26.64;33.79;102446.38;5306582;28;20044;-73
2022/07/17 14:13:22;;;;;;;3.88;1.52;;;;;;;26.97;33.42;102448.09;5304719;28;20027;-72
2022/07/17 14:15:53;;;;;;;3.88;2.20;;;;;;;26.96;32.98;102447.28;5305995;28;20491;-72
2022/07/17 14:18:24;;;;;;;3.90;1.88;;;;;;;26.71;32.79;102440.88;5305441;28;20116;-72
2022/07/17 14:20:56;;;;;;;2.90;1.75;;;;;;;27.16;32.56;102444.56;5305127;28;20039;-73
2022/07/17 14:23:27;;;;;;;4.57;1.88;;;;;;;27.26;32.70;102444.88;5305929;28;20066;-73
2022/07/17 14:25:58;;;;;;;3.67;1.75;;;;;;;27.26;32.21;102442.03;5309653;28;20484;-72
2022/07/17 14:28:31;;;;;;;3.35;1.45;;;;;;;27.19;32.21;102439.00;5325705;28;20020;-72
2022/07/17 14:31:03;;;;;;;3.97;1.58;;;;;;;27.32;32.58;102437.72;5326699;28;20371;-73
2022/07/17 14:33:34;;;;;;;3.42;1.92;;;;;;;27.13;32.25;102440.44;5325991;28;20043;-71
2022/07/17 14:36:05;;;;;;;4.53;1.80;;;;;;;27.32;32.39;102425.50;5326804;28;20055;-73
2022/07/17 14:38:38;;;;;;;4.68;2.08;;;;;;;27.17;32.49;102426.28;5326640;28;20023;-75
2022/07/17 14:41:10;;;;;;;3.80;2.25;;;;;;;27.48;32.64;102416.94;5312953;28;20024;-74
2022/07/17 14:43:41;;;;;;;4.43;1.80;;;;;;;27.35;32.54;102426.78;5314710;28;20034;-73
2022/07/17 14:46:12;;;;;;;4.38;2.25;;;;;;;27.47;32.08;102429.53;5325213;28;20019;-74
2022/07/17 14:48:44;;;;;;;3.72;1.63;;;;;;;27.49;32.08;102427.97;5303323;28;20043;-72
2022/07/17 14:51:15;;;;;;;5.68;2.00;;;;;;;27.32;31.82;102432.00;5304600;28;20020;-73
2022/07/17 14:53:47;;;;;;;2.85;1.42;;;;;;;27.56;32.24;102424.50;5304817;28;20024;-73
2022/07/17 14:56:18;;;;;;;5.50;1.80;;;;;;;27.41;31.81;102425.34;5303988;28;20047;-73
2022/07/17 14:58:49;;;;;;;3.30;1.73;;;;;;;27.53;31.99;102419.50;5304039;28;20131;-71
2022/07/17 15:01:20;;;;;;;3.38;1.60;;;;;;;27.50;32.23;102420.25;5320413;28;20494;-73
2022/07/17 15:03:52;;;;;;;7.35;1.77;;;;;;;27.55;31.71;102417.13;5324899;28;20019;-73
2022/07/17 15:06:23;;;;;;;3.88;1.98;;;;;;;27.52;31.87;102413.00;5325873;28;20467;-73
2022/07/17 15:08:54;;;;;;;4.10;1.75;;;;;;;27.63;32.00;102412.44;5324903;28;20020;-72
2022/07/17 15:11:26;;;;;;;6.78;2.15;;;;;;;27.55;31.72;102419.97;5325919;28;20023;-73
2022/07/17 15:13:57;;;;;;;26.33;23.58;;;;;;;27.54;32.18;102418.34;5323517;28;20024;-71
2022/07/17 15:16:29;;;;;;;6.03;3.22;;;;;;;27.70;32.17;102409.75;5312718;28;20019;-72
2022/07/17 15:19:00;;;;;;;4.07;2.40;;;;;;;27.53;32.12;102408.13;5304465;28;20475;-74
2022/07/17 15:21:31;;;;;;;4.30;2.80;;;;;;;27.65;32.12;102416.56;5304781;28;20036;-73
2022/07/17 15:24:03;;;;;;;4.50;2.00;;;;;;;27.55;32.57;102411.44;5303711;28;20167;-73
2022/07/17 15:26:34;;;;;;;6.32;2.15;;;;;;;27.44;32.10;102418.88;5304500;28;20024;-72
2022/07/17 15:29:05;;;;;;;4.18;2.08;;;;;;;27.40;32.36;102418.78;5319026;28;20023;-72
2022/07/17 15:31:37;;;;;;;4.78;1.80;;;;;;;27.44;30.85;102405.47;5324195;28;20039;-73
2022/07/17 15:34:08;;;;;;;4.13;1.92;;;;;;;27.46;31.92;102402.25;5320031;28;20024;-72
2022/07/17 15:36:39;;;;;;;4.05;2.17;;;;;;;27.39;32.63;102407.78;5304536;28;20030;-72
2022/07/17 15:39:11;;;;;;;3.65;1.75;;;;;;;27.22;32.07;102412.63;5303354;28;20036;-72
2022/07/17 15:41:42;;;;;;;6.28;1.80;;;;;;;27.35;32.02;102401.97;5304105;28;20027;-72
2022/07/17 15:44:16;;;;;;;3.60;1.52;;;;;;;27.24;31.33;102400.88;5303329;28;20024;-72
2022/07/17 15:46:47;;;;;;;5.95;2.83;;;;;;;27.37;31.58;102393.06;5304204;28;20026;-72
2022/07/17 15:49:19;;;;;;;8.45;7.25;;;;;;;27.40;31.59;102387.44;5320576;28;20024;-73
2022/07/17 15:51:51;;;;;;;43.63;39.70;;;;;;;27.45;31.91;102392.03;5312767;28;20051;-73
2022/07/17 15:54:22;;;;;;;8.05;3.17;;;;;;;27.21;31.09;102385.34;5303675;28;20059;-73
2022/07/17 15:56:53;;;;;;;4.97;2.00;;;;;;;27.44;31.89;102382.69;5303863;28;20028;-71
2022/07/17 15:59:25;;;;;;;5.90;3.28;;;;;;;27.39;31.57;102376.44;5302914;28;20130;-72
2022/07/17 16:01:57;;;;;;;6.47;2.97;;;;;;;27.38;31.63;102372.78;5324344;28;20039;-72
2022/07/17 16:04:28;;;;;;;6.88;4.32;;;;;;;27.34;30.80;102373.88;5325104;28;20420;-73
2022/07/17 16:06:59;;;;;;;6.50;3.10;;;;;;;27.21;31.90;102371.13;5323824;28;20026;-73
2022/07/17 16:09:31;;;;;;;4.05;2.72;;;;;;;27.46;31.14;102368.06;5306676;28;20016;-73
2022/07/17 16:12:02;;;;;;;12.23;8.93;;;;;;;27.50;30.68;102371.81;5302659;28;20078;-73
2022/07/17 16:14:33;;;;;;;15.55;14.07;;;;;;;27.54;30.51;102367.03;5304001;28;20021;-73
2022/07/17 16:17:05;;;;;;;5.80;3.00;;;;;;;27.41;30.41;102365.50;5303881;28;20016;-73
2022/07/17 16:19:36;;;;;;;7.18;2.65;;;;;;;27.52;30.64;102358.03;5304678;28;20020;-73
2022/07/17 16:22:10;;;;;;;4.60;2.08;;;;;;;27.42;30.43;102348.03;5308980;28;20387;-71
2022/07/17 16:24:42;;;;;;;3.17;1.60;;;;;;;27.56;30.21;102339.03;5309930;28;20383;-74
2022/07/17 16:27:13;;;;;;;5.47;1.90;;;;;;;27.56;30.45;102344.72;5328697;28;20043;-73
2022/07/17 16:29:44;;;;;;;4.35;1.88;;;;;;;27.41;30.31;102342.72;5308201;28;20099;-74
2022/07/17 16:32:16;;;;;;;3.83;1.70;;;;;;;27.55;30.56;102334.50;5308097;28;20032;-73
2022/07/17 16:34:47;;;;;;;3.70;2.15;;;;;;;27.46;30.95;102334.72;5307082;28;20460;-73
2022/07/17 16:37:18;;;;;;;5.40;2.75;;;;;;;27.44;29.88;102333.44;5307927;28;20452;-73
2022/07/17 16:39:50;;;;;;;2.97;2.00;;;;;;;27.28;30.51;102327.75;5307997;28;20028;-74
2022/07/17 16:42:21;;;;;;;4.20;1.88;;;;;;;27.25;31.25;102334.16;5314629;28;20024;-74
2022/07/17 16:44:52;;;;;;;4.35;2.03;;;;;;;27.29;31.13;102324.53;5329062;28;20020;-74
2022/07/17 16:47:24;;;;;;;5.93;2.03;;;;;;;27.48;31.47;102317.22;5327958;28;20103;-73
2022/07/17 16:49:55;;;;;;;2.78;1.63;;;;;;;27.45;31.54;102320.81;5328583;28;20019;-73
2022/07/17 16:52:26;;;;;;;4.13;1.83;;;;;;;27.31;30.62;102322.13;5328594;28;20031;-72
2022/07/17 16:54:57;;;;;;;5.75;2.88;;;;;;;27.60;30.79;102319.16;5327677;28;20032;-74
2022/07/17 16:57:29;;;;;;;3.78;2.60;;;;;;;27.44;30.85;102314.31;5327792;28;20080;-73
2022/07/17 17:00:00;;;;;;;2.97;1.85;;;;;;;27.60;30.35;102322.81;5315118;28;20040;-73
2022/07/17 17:02:32;;;;;;;5.47;2.20;;;;;;;27.63;30.35;102322.06;5306381;28;20356;-73
2022/07/17 17:05:06;;;;;;;4.97;1.98;;;;;;;27.45;30.54;102318.78;5306880;28;20110;-74
2022/07/17 17:07:37;;;;;;;4.63;1.92;;;;;;;27.60;31.38;102316.28;5307097;28;20042;-71
2022/07/17 17:10:09;;;;;;;4.10;1.50;;;;;;;27.51;31.77;102316.50;5306275;28;20046;-73
2022/07/17 17:12:43;;;;;;;3.97;1.98;;;;;;;27.61;31.43;102301.69;5307057;28;20069;-73
2022/07/17 17:15:14;;;;;;;4.32;1.90;;;;;;;27.69;30.92;102302.69;5306727;28;20077;-73
2022/07/17 17:17:46;;;;;;;4.30;2.30;;;;;;;27.58;30.81;102302.41;5325289;28;20475;-73
2022/07/17 17:20:17;;;;;;;3.70;1.65;;;;;;;27.47;30.40;102292.81;5328090;28;20375;-71
2022/07/17 17:22:48;;;;;;;3.67;1.80;;;;;;;27.41;30.24;102297.16;5327525;28;20452;-73
2022/07/17 17:25:20;;;;;;;4.15;2.00;;;;;;;27.32;30.23;102298.16;5328272;28;20062;-72
2022/07/17 17:27:51;;;;;;;2.13;1.58;;;;;;;27.28;30.04;102302.94;5323221;28;20414;-73
2022/07/17 17:30:23;;;;;;;5.28;2.05;;;;;;;27.53;30.04;102299.84;5305269;28;20057;-71
